Strona główna
METAR-TAF:

METAR-TAF

Lotnisko :

North Kingstown, Rhode Island, Stany Zjednoczone

Szerokość geograficzna: 41-36N, Długość geograficzna: 071-25W, wysokość: 6 m

Aktualna obserwacja pogody

Raport powstał 21 godziny i 27 minut temu, godzina 22:50 UTC
Wiatr 8 kt od północny zachód
Temperatura -3°C
Wilgotność 30%
Ciśnienie 1016 hPa
Widzialność: 16.1 km
Mało chmury na wysokości 20000 ft

METAR: KOQU 242250Z 31008KT 10SM FEW200 M03/M18 A2999 RMK LAST

czas: 15:17 (20:17 UTC)


TAF: brakujący

Obserwacja i prognoza pogody dla ponad 4000 lotnisk (raport METAR i TAF).

Dostępne stacje oznaczono żółtymi i czerwonymi punktami na mapie.

Najedź kursorem aby zobaczyć nazwę stacji.

Kliknij aby zobaczyć obserwacje i prognozy pogody.

Aby zmienić mapę: kliknij na zielony przycisk z czarnym krzyżykiem, aby powiększyć; na zielony przycisk z myślnikiem, aby pomniejszyć; na zielone strzałki, aby przejść do map sąsiednich.


METAR-TAF: